createdAt,value
2019-02-10T18:24:20.653Z,8.50
2019-02-10T18:26:53.912Z,8.60
2019-02-10T18:29:36.455Z,11.50
2019-02-10T18:32:04.690Z,14.50
2019-02-10T18:34:38.676Z,17.80
2019-02-10T18:37:14.634Z,19.70
2019-02-10T18:39:57.021Z,21.10
2019-02-10T18:42:27.235Z,22.20
2019-02-10T18:45:09.228Z,22.70
2019-02-10T18:47:42.439Z,23.10
2019-02-10T18:50:12.601Z,23.20
2019-02-10T18:55:34.123Z,22.20
2019-02-10T18:58:04.647Z,22.40
2019-02-10T19:00:47.058Z,21.70
2019-02-10T19:03:18.249Z,21.20
2019-02-10T19:16:06.251Z,22.30
2019-02-10T19:18:36.482Z,22.10
2019-02-10T19:21:08.898Z,22.00
2019-02-10T19:23:52.330Z,21.50
2019-02-10T19:26:37.971Z,21.40
2019-02-10T19:29:26.144Z,22.30
2019-02-10T19:31:56.366Z,22.10
2019-02-10T19:34:32.058Z,22.20
2019-02-10T19:37:07.612Z,21.90
2019-02-10T19:39:41.985Z,21.50
2019-02-10T19:42:18.763Z,21.40
2019-02-10T19:45:06.937Z,21.90
2019-02-10T19:47:46.082Z,21.80
2019-02-10T19:50:35.481Z,22.00
2019-02-10T19:53:06.016Z,21.90
2019-02-10T19:55:36.249Z,22.10
2019-02-10T19:58:06.425Z,22.70
2019-02-10T20:00:39.378Z,21.90
2019-02-10T20:03:09.622Z,21.60
2019-02-10T20:05:39.881Z,22.70
2019-02-10T20:08:22.139Z,22.00
2019-02-10T20:11:09.040Z,22.80
2019-02-10T20:16:19.115Z,23.50
2019-02-10T20:19:06.031Z,23.20
2019-02-10T20:21:38.882Z,23.30
2019-02-10T20:24:11.813Z,23.20
2019-02-10T20:26:44.802Z,24.00
2019-02-10T20:29:32.821Z,23.00
2019-02-10T20:32:06.005Z,23.60
2019-02-10T20:34:36.616Z,23.50
2019-02-10T20:37:15.402Z,23.00
2019-02-10T20:39:54.758Z,22.60
2019-02-10T20:42:25.030Z,23.30
2019-02-10T20:45:01.022Z,24.00
2019-02-10T20:47:31.288Z,24.40
2019-02-10T20:50:03.052Z,25.00
2019-02-10T20:52:33.277Z,24.50
2019-02-10T20:55:12.608Z,24.60
2019-02-10T20:57:46.156Z,24.30
2019-02-10T21:00:25.191Z,24.50
2019-02-10T21:03:07.431Z,24.80
2019-02-10T21:05:37.695Z,24.80
2019-02-10T21:08:08.311Z,25.20
2019-02-10T21:10:50.546Z,25.50
2019-02-10T21:13:35.746Z,25.10
2019-02-10T21:16:06.383Z,23.80
2019-02-10T21:18:54.680Z,24.00
2019-02-10T21:21:40.057Z,23.50
2019-02-10T21:24:22.260Z,24.00
2019-02-10T21:26:52.511Z,24.10
2019-02-10T21:29:26.323Z,24.40
2019-02-10T21:31:59.324Z,23.00
2019-02-10T21:34:29.924Z,22.00
2019-02-10T21:37:06.186Z,23.00
2019-02-10T21:39:37.320Z,23.50
2019-02-10T21:42:16.656Z,23.90
2019-02-10T21:44:49.843Z,23.60
2019-02-10T21:47:20.085Z,23.50
2019-02-10T21:49:48.744Z,24.00
2019-02-10T21:52:17.387Z,23.30
2019-02-10T21:54:45.991Z,23.10
2019-02-10T21:57:14.632Z,23.70
2019-02-10T21:59:43.294Z,24.00
2019-02-10T22:02:11.977Z,24.50
2019-02-10T22:04:40.628Z,24.00
2019-02-10T22:07:09.264Z,24.30
2019-02-10T22:09:37.958Z,24.60
2019-02-10T22:12:06.537Z,24.70
2019-02-10T22:14:35.101Z,24.70
2019-02-10T22:17:03.787Z,24.00
2019-02-10T22:19:32.353Z,24.20
2019-02-10T22:22:00.988Z,24.10
2019-02-10T22:24:29.665Z,24.60
2019-02-10T22:26:58.298Z,24.90
2019-02-10T22:29:26.865Z,25.20
2019-02-10T22:31:55.478Z,25.10
2019-02-10T22:34:24.055Z,25.20
2019-02-10T22:36:52.688Z,25.30
2019-02-10T22:39:21.365Z,25.50
2019-02-10T22:41:50.286Z,25.90
2019-02-10T22:44:18.911Z,25.40
2019-02-10T22:46:47.599Z,25.10
2019-02-10T22:49:16.171Z,24.90
2019-02-10T22:51:44.808Z,25.30
2019-02-10T22:54:13.426Z,25.10
2019-02-10T22:56:42.046Z,24.40
2019-02-10T22:59:10.675Z,24.90
2019-02-10T23:01:39.290Z,24.20
2019-02-10T23:04:07.946Z,23.80
2019-02-10T23:06:36.506Z,23.80
2019-02-10T23:09:07.759Z,24.10
2019-02-10T23:11:36.329Z,23.60
2019-02-10T23:14:04.972Z,24.40
2019-02-10T23:16:33.658Z,24.90
2019-02-10T23:19:02.285Z,24.30
2019-02-10T23:21:30.919Z,24.80
2019-02-10T23:23:59.761Z,25.40
2019-02-10T23:26:28.409Z,26.10
2019-02-10T23:28:56.966Z,26.40
2019-02-10T23:31:25.505Z,25.00
2019-02-10T23:33:54.074Z,25.20
2019-02-10T23:36:22.653Z,25.60
2019-02-10T23:38:51.325Z,25.50
2019-02-10T23:41:21.038Z,25.90
2019-02-10T23:43:49.561Z,25.70
2019-02-10T23:46:18.106Z,25.80
2019-02-10T23:48:46.726Z,25.90
2019-02-10T23:51:15.369Z,25.70
2019-02-10T23:53:44.102Z,25.70
2019-02-10T23:56:12.713Z,26.00
2019-02-10T23:58:41.228Z,26.50
